sensor_id;sensor_type;location;lat;lon;timestamp;P1;durP1;ratioP1;P2;durP2;ratioP2
30543;SDS011;43388;46.308;4.600;2022-11-24T00:01:18;38.00;;;12.02;;
30543;SDS011;43388;46.308;4.600;2022-11-24T00:03:45;31.80;;;9.00;;
30543;SDS011;43388;46.308;4.600;2022-11-24T00:06:12;33.72;;;10.15;;
30543;SDS011;43388;46.308;4.600;2022-11-24T00:08:39;30.23;;;10.10;;
30543;SDS011;43388;46.308;4.600;2022-11-24T00:11:06;33.92;;;8.80;;
30543;SDS011;43388;46.308;4.600;2022-11-24T00:13:32;29.35;;;8.65;;
30543;SDS011;43388;46.308;4.600;2022-11-24T00:16:12;29.88;;;9.68;;
30543;SDS011;43388;46.308;4.600;2022-11-24T00:18:38;34.45;;;11.10;;
30543;SDS011;43388;46.308;4.600;2022-11-24T00:21:05;38.25;;;15.68;;
30543;SDS011;43388;46.308;4.600;2022-11-24T00:23:31;40.35;;;15.15;;
30543;SDS011;43388;46.308;4.600;2022-11-24T00:28:30;34.88;;;12.57;;
30543;SDS011;43388;46.308;4.600;2022-11-24T00:30:56;44.38;;;12.10;;
30543;SDS011;43388;46.308;4.600;2022-11-24T00:33:22;24.02;;;8.80;;
30543;SDS011;43388;46.308;4.600;2022-11-24T00:35:55;25.83;;;8.43;;
30543;SDS011;43388;46.308;4.600;2022-11-24T00:38:21;24.15;;;5.85;;
30543;SDS011;43388;46.308;4.600;2022-11-24T00:40:47;27.23;;;7.22;;
30543;SDS011;43388;46.308;4.600;2022-11-24T00:43:13;19.95;;;8.15;;
30543;SDS011;43388;46.308;4.600;2022-11-24T00:45:40;20.52;;;6.90;;
30543;SDS011;43388;46.308;4.600;2022-11-24T00:48:06;27.50;;;7.20;;
30543;SDS011;43388;46.308;4.600;2022-11-24T00:50:32;27.90;;;6.63;;
30543;SDS011;43388;46.308;4.600;2022-11-24T00:52:58;23.83;;;6.97;;
30543;SDS011;43388;46.308;4.600;2022-11-24T00:55:24;27.30;;;7.63;;
30543;SDS011;43388;46.308;4.600;2022-11-24T00:57:51;25.48;;;7.70;;
30543;SDS011;43388;46.308;4.600;2022-11-24T01:00:17;29.60;;;8.85;;
30543;SDS011;43388;46.308;4.600;2022-11-24T01:02:43;30.10;;;8.30;;
30543;SDS011;43388;46.308;4.600;2022-11-24T01:05:09;25.55;;;8.30;;
30543;SDS011;43388;46.308;4.600;2022-11-24T01:07:35;19.50;;;6.32;;
30543;SDS011;43388;46.308;4.600;2022-11-24T01:10:02;27.48;;;7.13;;
30543;SDS011;43388;46.308;4.600;2022-11-24T01:12:28;19.17;;;6.28;;
30543;SDS011;43388;46.308;4.600;2022-11-24T01:14:54;25.80;;;6.88;;
30543;SDS011;43388;46.308;4.600;2022-11-24T01:17:20;20.13;;;7.00;;
30543;SDS011;43388;46.308;4.600;2022-11-24T01:19:46;24.25;;;7.00;;
30543;SDS011;43388;46.308;4.600;2022-11-24T01:22:13;25.33;;;7.57;;
30543;SDS011;43388;46.308;4.600;2022-11-24T01:24:39;22.27;;;7.75;;
30543;SDS011;43388;46.308;4.600;2022-11-24T01:27:05;23.02;;;6.53;;
30543;SDS011;43388;46.308;4.600;2022-11-24T01:29:31;23.10;;;7.03;;
30543;SDS011;43388;46.308;4.600;2022-11-24T01:31:57;20.50;;;7.45;;
30543;SDS011;43388;46.308;4.600;2022-11-24T01:34:23;24.88;;;6.93;;
30543;SDS011;43388;46.308;4.600;2022-11-24T01:36:49;22.90;;;6.95;;
30543;SDS011;43388;46.308;4.600;2022-11-24T01:39:15;30.77;;;7.88;;
30543;SDS011;43388;46.308;4.600;2022-11-24T01:41:41;18.98;;;6.60;;
30543;SDS011;43388;46.308;4.600;2022-11-24T01:46:50;26.88;;;7.35;;
30543;SDS011;43388;46.308;4.600;2022-11-24T01:49:20;24.73;;;6.82;;
30543;SDS011;43388;46.308;4.600;2022-11-24T01:54:19;26.88;;;7.10;;
30543;SDS011;43388;46.308;4.600;2022-11-24T01:56:47;16.75;;;6.78;;
30543;SDS011;43388;46.308;4.600;2022-11-24T01:59:14;19.80;;;6.72;;
30543;SDS011;43388;46.308;4.600;2022-11-24T02:01:41;15.35;;;6.45;;
30543;SDS011;43388;46.308;4.600;2022-11-24T02:04:09;25.65;;;6.93;;
30543;SDS011;43388;46.308;4.600;2022-11-24T02:06:36;24.70;;;5.72;;
30543;SDS011;43388;46.308;4.600;2022-11-24T02:09:10;24.92;;;6.18;;
30543;SDS011;43388;46.308;4.600;2022-11-24T02:11:38;18.02;;;5.72;;
30543;SDS011;43388;46.308;4.600;2022-11-24T02:14:05;26.58;;;7.60;;
30543;SDS011;43388;46.308;4.600;2022-11-24T02:16:35;23.52;;;6.88;;
30543;SDS011;43388;46.308;4.600;2022-11-24T02:19:06;21.98;;;6.30;;
30543;SDS011;43388;46.308;4.600;2022-11-24T02:21:34;23.65;;;6.53;;
30543;SDS011;43388;46.308;4.600;2022-11-24T02:28:52;25.55;;;6.45;;
30543;SDS011;43388;46.308;4.600;2022-11-24T02:31:18;22.65;;;7.13;;
30543;SDS011;43388;46.308;4.600;2022-11-24T02:33:44;25.63;;;7.28;;
30543;SDS011;43388;46.308;4.600;2022-11-24T02:36:11;24.98;;;6.15;;
30543;SDS011;43388;46.308;4.600;2022-11-24T02:38:37;20.75;;;6.18;;
30543;SDS011;43388;46.308;4.600;2022-11-24T02:41:06;15.60;;;5.43;;
30543;SDS011;43388;46.308;4.600;2022-11-24T02:43:34;25.50;;;6.70;;
30543;SDS011;43388;46.308;4.600;2022-11-24T02:46:01;20.63;;;5.97;;
30543;SDS011;43388;46.308;4.600;2022-11-24T02:48:28;20.23;;;6.60;;
30543;SDS011;43388;46.308;4.600;2022-11-24T02:50:54;28.05;;;7.38;;
30543;SDS011;43388;46.308;4.600;2022-11-24T02:53:20;26.52;;;8.13;;
30543;SDS011;43388;46.308;4.600;2022-11-24T02:55:46;19.95;;;6.38;;
30543;SDS011;43388;46.308;4.600;2022-11-24T02:58:12;16.25;;;5.90;;
30543;SDS011;43388;46.308;4.600;2022-11-24T03:00:39;24.98;;;6.72;;
30543;SDS011;43388;46.308;4.600;2022-11-24T03:03:05;25.45;;;6.35;;
30543;SDS011;43388;46.308;4.600;2022-11-24T03:05:31;26.02;;;6.72;;
30543;SDS011;43388;46.308;4.600;2022-11-24T03:07:57;19.60;;;6.05;;
30543;SDS011;43388;46.308;4.600;2022-11-24T03:10:23;25.77;;;6.65;;
30543;SDS011;43388;46.308;4.600;2022-11-24T03:12:49;29.52;;;7.18;;
30543;SDS011;43388;46.308;4.600;2022-11-24T03:15:15;20.73;;;6.82;;
30543;SDS011;43388;46.308;4.600;2022-11-24T03:17:41;23.02;;;7.00;;
30543;SDS011;43388;46.308;4.600;2022-11-24T03:20:07;20.13;;;6.60;;
30543;SDS011;43388;46.308;4.600;2022-11-24T03:22:33;23.70;;;6.28;;
30543;SDS011;43388;46.308;4.600;2022-11-24T03:24:59;24.80;;;6.57;;
30543;SDS011;43388;46.308;4.600;2022-11-24T03:27:25;26.27;;;8.10;;
30543;SDS011;43388;46.308;4.600;2022-11-24T03:29:51;26.73;;;7.38;;
30543;SDS011;43388;46.308;4.600;2022-11-24T03:32:17;25.58;;;7.03;;
30543;SDS011;43388;46.308;4.600;2022-11-24T03:34:43;24.02;;;6.25;;
30543;SDS011;43388;46.308;4.600;2022-11-24T03:37:09;26.38;;;7.07;;
30543;SDS011;43388;46.308;4.600;2022-11-24T03:39:35;13.38;;;5.00;;
30543;SDS011;43388;46.308;4.600;2022-11-24T03:42:01;22.42;;;6.40;;
30543;SDS011;43388;46.308;4.600;2022-11-24T03:44:27;16.70;;;6.32;;
30543;SDS011;43388;46.308;4.600;2022-11-24T03:46:53;23.25;;;6.88;;
30543;SDS011;43388;46.308;4.600;2022-11-24T03:49:19;23.02;;;6.82;;
30543;SDS011;43388;46.308;4.600;2022-11-24T03:51:46;19.88;;;6.80;;
30543;SDS011;43388;46.308;4.600;2022-11-24T03:54:12;22.55;;;6.55;;
30543;SDS011;43388;46.308;4.600;2022-11-24T03:56:38;20.50;;;6.63;;
30543;SDS011;43388;46.308;4.600;2022-11-24T03:59:04;18.42;;;5.05;;
30543;SDS011;43388;46.308;4.600;2022-11-24T04:01:30;23.02;;;6.18;;
30543;SDS011;43388;46.308;4.600;2022-11-24T04:03:56;17.50;;;6.35;;
30543;SDS011;43388;46.308;4.600;2022-11-24T04:06:22;22.55;;;5.70;;
30543;SDS011;43388;46.308;4.600;2022-11-24T04:08:48;22.25;;;6.60;;
30543;SDS011;43388;46.308;4.600;2022-11-24T04:11:14;25.30;;;5.88;;
30543;SDS011;43388;46.308;4.600;2022-11-24T04:13:58;28.65;;;6.90;;
30543;SDS011;43388;46.308;4.600;2022-11-24T04:16:24;27.33;;;5.95;;
30543;SDS011;43388;46.308;4.600;2022-11-24T04:18:53;18.90;;;5.60;;
30543;SDS011;43388;46.308;4.600;2022-11-24T04:21:20;21.48;;;6.38;;
30543;SDS011;43388;46.308;4.600;2022-11-24T04:23:46;15.02;;;5.43;;
30543;SDS011;43388;46.308;4.600;2022-11-24T04:26:12;17.50;;;6.07;;
30543;SDS011;43388;46.308;4.600;2022-11-24T04:28:38;13.82;;;5.72;;
30543;SDS011;43388;46.308;4.600;2022-11-24T04:31:04;19.65;;;6.78;;
30543;SDS011;43388;46.308;4.600;2022-11-24T04:33:31;20.48;;;5.75;;
30543;SDS011;43388;46.308;4.600;2022-11-24T04:35:57;19.25;;;4.55;;
30543;SDS011;43388;46.308;4.600;2022-11-24T04:38:23;26.13;;;7.40;;
30543;SDS011;43388;46.308;4.600;2022-11-24T04:40:49;24.50;;;5.90;;
30543;SDS011;43388;46.308;4.600;2022-11-24T04:43:15;21.50;;;6.15;;
30543;SDS011;43388;46.308;4.600;2022-11-24T04:45:42;20.95;;;5.72;;
30543;SDS011;43388;46.308;4.600;2022-11-24T04:48:08;21.55;;;5.65;;
30543;SDS011;43388;46.308;4.600;2022-11-24T04:50:35;17.23;;;6.78;;
30543;SDS011;43388;46.308;4.600;2022-11-24T04:53:01;19.92;;;5.20;;
30543;SDS011;43388;46.308;4.600;2022-11-24T04:55:27;21.30;;;5.53;;
30543;SDS011;43388;46.308;4.600;2022-11-24T04:57:53;21.30;;;5.75;;
30543;SDS011;43388;46.308;4.600;2022-11-24T05:00:19;18.58;;;6.18;;
30543;SDS011;43388;46.308;4.600;2022-11-24T05:02:46;22.30;;;5.63;;
30543;SDS011;43388;46.308;4.600;2022-11-24T05:05:12;24.23;;;6.63;;
30543;SDS011;43388;46.308;4.600;2022-11-24T05:07:38;18.13;;;7.28;;
30543;SDS011;43388;46.308;4.600;2022-11-24T05:10:04;16.00;;;5.65;;
30543;SDS011;43388;46.308;4.600;2022-11-24T05:12:52;17.13;;;5.07;;
30543;SDS011;43388;46.308;4.600;2022-11-24T05:15:19;12.88;;;5.80;;
30543;SDS011;43388;46.308;4.600;2022-11-24T05:17:45;20.70;;;5.50;;
30543;SDS011;43388;46.308;4.600;2022-11-24T05:20:11;20.13;;;6.53;;
30543;SDS011;43388;46.308;4.600;2022-11-24T05:22:37;17.65;;;5.47;;
30543;SDS011;43388;46.308;4.600;2022-11-24T05:25:03;14.68;;;5.43;;
30543;SDS011;43388;46.308;4.600;2022-11-24T05:27:29;15.30;;;5.82;;
30543;SDS011;43388;46.308;4.600;2022-11-24T05:29:55;18.42;;;5.70;;
30543;SDS011;43388;46.308;4.600;2022-11-24T05:32:21;19.55;;;5.90;;
30543;SDS011;43388;46.308;4.600;2022-11-24T05:34:47;19.13;;;6.03;;
30543;SDS011;43388;46.308;4.600;2022-11-24T05:37:13;17.88;;;5.43;;
30543;SDS011;43388;46.308;4.600;2022-11-24T05:39:39;14.48;;;5.18;;
30543;SDS011;43388;46.308;4.600;2022-11-24T05:42:05;17.60;;;5.85;;
30543;SDS011;43388;46.308;4.600;2022-11-24T05:44:51;18.42;;;6.25;;
30543;SDS011;43388;46.308;4.600;2022-11-24T05:47:17;21.77;;;5.30;;
30543;SDS011;43388;46.308;4.600;2022-11-24T05:49:43;23.23;;;6.05;;
30543;SDS011;43388;46.308;4.600;2022-11-24T05:52:09;22.60;;;7.13;;
30543;SDS011;43388;46.308;4.600;2022-11-24T05:54:36;18.38;;;6.22;;
30543;SDS011;43388;46.308;4.600;2022-11-24T05:57:02;19.48;;;7.25;;
30543;SDS011;43388;46.308;4.600;2022-11-24T05:59:28;15.00;;;5.40;;
30543;SDS011;43388;46.308;4.600;2022-11-24T06:01:54;20.45;;;5.82;;
30543;SDS011;43388;46.308;4.600;2022-11-24T06:04:20;16.25;;;4.80;;
30543;SDS011;43388;46.308;4.600;2022-11-24T06:06:46;15.68;;;5.70;;
30543;SDS011;43388;46.308;4.600;2022-11-24T06:09:12;20.65;;;5.20;;
30543;SDS011;43388;46.308;4.600;2022-11-24T06:11:38;12.77;;;5.13;;
30543;SDS011;43388;46.308;4.600;2022-11-24T06:14:04;22.27;;;5.65;;
30543;SDS011;43388;46.308;4.600;2022-11-24T06:16:30;19.38;;;5.68;;
30543;SDS011;43388;46.308;4.600;2022-11-24T06:18:56;17.35;;;5.90;;
30543;SDS011;43388;46.308;4.600;2022-11-24T06:21:22;19.95;;;6.43;;
30543;SDS011;43388;46.308;4.600;2022-11-24T06:23:48;16.80;;;6.32;;
30543;SDS011;43388;46.308;4.600;2022-11-24T06:26:14;16.55;;;5.30;;
30543;SDS011;43388;46.308;4.600;2022-11-24T06:28:42;31.40;;;13.00;;
30543;SDS011;43388;46.308;4.600;2022-11-24T06:31:08;22.83;;;9.13;;
30543;SDS011;43388;46.308;4.600;2022-11-24T06:33:35;21.52;;;6.43;;
30543;SDS011;43388;46.308;4.600;2022-11-24T06:36:02;23.85;;;6.65;;
30543;SDS011;43388;46.308;4.600;2022-11-24T06:38:29;23.08;;;5.57;;
30543;SDS011;43388;46.308;4.600;2022-11-24T06:41:02;21.80;;;6.47;;
30543;SDS011;43388;46.308;4.600;2022-11-24T06:43:28;16.55;;;4.82;;
30543;SDS011;43388;46.308;4.600;2022-11-24T06:45:55;12.50;;;5.32;;
30543;SDS011;43388;46.308;4.600;2022-11-24T06:48:22;19.67;;;5.60;;
30543;SDS011;43388;46.308;4.600;2022-11-24T06:50:48;19.55;;;5.82;;
30543;SDS011;43388;46.308;4.600;2022-11-24T06:53:14;20.90;;;5.35;;
30543;SDS011;43388;46.308;4.600;2022-11-24T06:55:40;18.73;;;5.60;;
30543;SDS011;43388;46.308;4.600;2022-11-24T06:58:07;17.08;;;5.93;;
30543;SDS011;43388;46.308;4.600;2022-11-24T07:00:33;16.02;;;5.72;;
30543;SDS011;43388;46.308;4.600;2022-11-24T07:02:59;18.45;;;5.45;;
30543;SDS011;43388;46.308;4.600;2022-11-24T07:05:25;15.00;;;5.63;;
30543;SDS011;43388;46.308;4.600;2022-11-24T07:07:51;15.73;;;4.93;;
30543;SDS011;43388;46.308;4.600;2022-11-24T07:10:17;17.58;;;5.57;;
30543;SDS011;43388;46.308;4.600;2022-11-24T07:12:44;18.65;;;6.20;;
30543;SDS011;43388;46.308;4.600;2022-11-24T07:15:10;22.10;;;5.63;;
30543;SDS011;43388;46.308;4.600;2022-11-24T07:17:39;19.52;;;7.97;;
30543;SDS011;43388;46.308;4.600;2022-11-24T07:20:06;22.00;;;7.55;;
30543;SDS011;43388;46.308;4.600;2022-11-24T07:22:32;18.17;;;6.00;;
30543;SDS011;43388;46.308;4.600;2022-11-24T07:24:58;21.25;;;7.38;;
30543;SDS011;43388;46.308;4.600;2022-11-24T07:27:28;17.88;;;6.38;;
30543;SDS011;43388;46.308;4.600;2022-11-24T07:29:54;21.30;;;5.85;;
30543;SDS011;43388;46.308;4.600;2022-11-24T07:32:20;17.30;;;6.07;;
30543;SDS011;43388;46.308;4.600;2022-11-24T07:34:46;18.45;;;5.50;;
30543;SDS011;43388;46.308;4.600;2022-11-24T07:37:12;20.77;;;6.40;;
30543;SDS011;43388;46.308;4.600;2022-11-24T07:39:38;19.40;;;7.55;;
30543;SDS011;43388;46.308;4.600;2022-11-24T07:42:04;23.35;;;6.70;;
30543;SDS011;43388;46.308;4.600;2022-11-24T07:44:30;19.75;;;5.82;;
30543;SDS011;43388;46.308;4.600;2022-11-24T07:46:57;19.58;;;6.13;;
30543;SDS011;43388;46.308;4.600;2022-11-24T07:49:23;16.35;;;5.43;;
30543;SDS011;43388;46.308;4.600;2022-11-24T07:51:49;16.05;;;5.75;;
30543;SDS011;43388;46.308;4.600;2022-11-24T07:54:15;20.58;;;5.63;;
30543;SDS011;43388;46.308;4.600;2022-11-24T07:56:41;15.38;;;5.25;;
30543;SDS011;43388;46.308;4.600;2022-11-24T07:59:07;15.55;;;5.40;;
30543;SDS011;43388;46.308;4.600;2022-11-24T08:01:33;25.15;;;6.25;;
30543;SDS011;43388;46.308;4.600;2022-11-24T08:03:59;15.30;;;5.22;;
30543;SDS011;43388;46.308;4.600;2022-11-24T08:06:29;25.30;;;5.95;;
30543;SDS011;43388;46.308;4.600;2022-11-24T08:08:55;20.00;;;7.25;;
30543;SDS011;43388;46.308;4.600;2022-11-24T08:11:21;17.20;;;5.40;;
30543;SDS011;43388;46.308;4.600;2022-11-24T08:13:47;14.63;;;4.85;;
30543;SDS011;43388;46.308;4.600;2022-11-24T08:16:14;15.90;;;5.20;;
30543;SDS011;43388;46.308;4.600;2022-11-24T08:18:41;24.98;;;5.35;;
30543;SDS011;43388;46.308;4.600;2022-11-24T08:21:11;15.77;;;5.78;;
30543;SDS011;43388;46.308;4.600;2022-11-24T08:23:38;16.67;;;5.93;;
30543;SDS011;43388;46.308;4.600;2022-11-24T08:26:04;18.75;;;6.13;;
30543;SDS011;43388;46.308;4.600;2022-11-24T08:28:32;22.25;;;6.10;;
30543;SDS011;43388;46.308;4.600;2022-11-24T08:31:06;19.35;;;5.93;;
30543;SDS011;43388;46.308;4.600;2022-11-24T08:33:32;18.23;;;5.43;;
30543;SDS011;43388;46.308;4.600;2022-11-24T08:36:05;15.98;;;5.90;;
30543;SDS011;43388;46.308;4.600;2022-11-24T08:38:31;15.68;;;5.95;;
30543;SDS011;43388;46.308;4.600;2022-11-24T08:41:01;14.75;;;5.55;;
30543;SDS011;43388;46.308;4.600;2022-11-24T08:43:27;18.85;;;5.57;;
30543;SDS011;43388;46.308;4.600;2022-11-24T08:45:53;14.40;;;5.68;;
30543;SDS011;43388;46.308;4.600;2022-11-24T08:48:19;18.70;;;6.57;;
30543;SDS011;43388;46.308;4.600;2022-11-24T08:50:45;20.88;;;6.38;;
30543;SDS011;43388;46.308;4.600;2022-11-24T08:53:11;19.00;;;5.38;;
30543;SDS011;43388;46.308;4.600;2022-11-24T08:55:37;14.13;;;5.38;;
30543;SDS011;43388;46.308;4.600;2022-11-24T08:58:03;16.52;;;5.40;;
30543;SDS011;43388;46.308;4.600;2022-11-24T09:00:29;16.35;;;5.90;;
30543;SDS011;43388;46.308;4.600;2022-11-24T09:02:55;16.52;;;5.05;;
30543;SDS011;43388;46.308;4.600;2022-11-24T09:05:22;14.93;;;5.30;;
30543;SDS011;43388;46.308;4.600;2022-11-24T09:07:48;15.35;;;5.35;;
30543;SDS011;43388;46.308;4.600;2022-11-24T09:10:14;15.25;;;4.82;;
30543;SDS011;43388;46.308;4.600;2022-11-24T09:12:42;17.58;;;5.90;;
30543;SDS011;43388;46.308;4.600;2022-11-24T09:15:08;17.50;;;5.63;;
30543;SDS011;43388;46.308;4.600;2022-11-24T09:17:35;14.60;;;5.38;;
30543;SDS011;43388;46.308;4.600;2022-11-24T09:20:01;14.32;;;4.70;;
30543;SDS011;43388;46.308;4.600;2022-11-24T09:22:29;15.57;;;5.88;;
30543;SDS011;43388;46.308;4.600;2022-11-24T09:24:55;10.80;;;4.43;;
30543;SDS011;43388;46.308;4.600;2022-11-24T09:27:21;14.38;;;4.93;;
30543;SDS011;43388;46.308;4.600;2022-11-24T09:29:47;14.82;;;5.57;;
30543;SDS011;43388;46.308;4.600;2022-11-24T09:32:13;19.83;;;6.45;;
30543;SDS011;43388;46.308;4.600;2022-11-24T09:34:39;19.17;;;5.38;;
30543;SDS011;43388;46.308;4.600;2022-11-24T09:37:05;16.85;;;5.93;;
30543;SDS011;43388;46.308;4.600;2022-11-24T09:39:31;13.68;;;5.40;;
30543;SDS011;43388;46.308;4.600;2022-11-24T09:44:53;19.15;;;5.30;;
30543;SDS011;43388;46.308;4.600;2022-11-24T09:50:07;12.80;;;4.47;;
30543;SDS011;43388;46.308;4.600;2022-11-24T09:55:17;10.95;;;4.65;;
30543;SDS011;43388;46.308;4.600;2022-11-24T09:57:45;15.32;;;5.75;;
30543;SDS011;43388;46.308;4.600;2022-11-24T10:00:16;14.75;;;6.53;;
30543;SDS011;43388;46.308;4.600;2022-11-24T10:02:42;14.13;;;5.40;;
30543;SDS011;43388;46.308;4.600;2022-11-24T10:05:10;12.68;;;4.85;;
30543;SDS011;43388;46.308;4.600;2022-11-24T10:07:41;14.80;;;5.85;;
30543;SDS011;43388;46.308;4.600;2022-11-24T10:15:10;15.55;;;4.50;;
30543;SDS011;43388;46.308;4.600;2022-11-24T10:25:32;13.35;;;4.25;;
30543;SDS011;43388;46.308;4.600;2022-11-24T10:28:02;14.18;;;4.30;;
30543;SDS011;43388;46.308;4.600;2022-11-24T10:30:29;11.70;;;4.03;;
30543;SDS011;43388;46.308;4.600;2022-11-24T10:32:56;16.60;;;4.15;;
30543;SDS011;43388;46.308;4.600;2022-11-24T10:35:26;16.52;;;4.32;;
30543;SDS011;43388;46.308;4.600;2022-11-24T10:38:06;11.55;;;3.78;;
30543;SDS011;43388;46.308;4.600;2022-11-24T10:40:38;16.73;;;4.63;;
30543;SDS011;43388;46.308;4.600;2022-11-24T10:43:07;16.88;;;4.00;;
30543;SDS011;43388;46.308;4.600;2022-11-24T10:45:34;17.40;;;4.65;;
30543;SDS011;43388;46.308;4.600;2022-11-24T10:48:02;17.35;;;5.30;;
30543;SDS011;43388;46.308;4.600;2022-11-24T10:50:34;16.35;;;5.30;;
30543;SDS011;43388;46.308;4.600;2022-11-24T10:55:42;12.38;;;3.72;;
30543;SDS011;43388;46.308;4.600;2022-11-24T10:58:13;10.35;;;3.75;;
30543;SDS011;43388;46.308;4.600;2022-11-24T11:00:40;15.30;;;5.05;;
30543;SDS011;43388;46.308;4.600;2022-11-24T11:03:10;14.50;;;4.47;;
30543;SDS011;43388;46.308;4.600;2022-11-24T11:10:44;11.23;;;4.57;;
30543;SDS011;43388;46.308;4.600;2022-11-24T11:15:46;17.17;;;4.53;;
30543;SDS011;43388;46.308;4.600;2022-11-24T11:18:15;13.40;;;4.28;;
30543;SDS011;43388;46.308;4.600;2022-11-24T11:20:52;14.23;;;4.13;;
30543;SDS011;43388;46.308;4.600;2022-11-24T11:23:29;11.63;;;3.95;;
30543;SDS011;43388;46.308;4.600;2022-11-24T11:28:40;13.03;;;4.07;;
30543;SDS011;43388;46.308;4.600;2022-11-24T11:31:07;12.32;;;4.38;;
30543;SDS011;43388;46.308;4.600;2022-11-24T11:33:42;14.77;;;4.47;;
30543;SDS011;43388;46.308;4.600;2022-11-24T11:36:18;14.68;;;4.32;;
30543;SDS011;43388;46.308;4.600;2022-11-24T11:38:44;14.88;;;5.78;;
30543;SDS011;43388;46.308;4.600;2022-11-24T11:41:45;14.15;;;5.30;;
30543;SDS011;43388;46.308;4.600;2022-11-24T11:46:36;12.00;;;4.20;;
30543;SDS011;43388;46.308;4.600;2022-11-24T11:49:02;14.98;;;4.15;;
30543;SDS011;43388;46.308;4.600;2022-11-24T11:56:21;13.13;;;3.60;;
30543;SDS011;43388;46.308;4.600;2022-11-24T12:04:19;12.82;;;4.00;;
30543;SDS011;43388;46.308;4.600;2022-11-24T12:06:54;14.20;;;4.65;;
30543;SDS011;43388;46.308;4.600;2022-11-24T12:12:03;15.30;;;4.45;;
30543;SDS011;43388;46.308;4.600;2022-11-24T12:24:55;12.45;;;4.10;;
30543;SDS011;43388;46.308;4.600;2022-11-24T12:42:37;15.05;;;4.47;;
30543;SDS011;43388;46.308;4.600;2022-11-24T12:50:18;14.25;;;4.93;;
30543;SDS011;43388;46.308;4.600;2022-11-24T12:55:15;9.93;;;3.97;;
30543;SDS011;43388;46.308;4.600;2022-11-24T12:58:44;12.25;;;4.60;;
30543;SDS011;43388;46.308;4.600;2022-11-24T13:00:56;12.88;;;4.90;;
30543;SDS011;43388;46.308;4.600;2022-11-24T13:08:40;13.50;;;4.30;;
30543;SDS011;43388;46.308;4.600;2022-11-24T13:14:05;13.00;;;4.50;;
30543;SDS011;43388;46.308;4.600;2022-11-24T13:16:31;10.77;;;4.22;;
30543;SDS011;43388;46.308;4.600;2022-11-24T13:18:58;12.93;;;4.35;;
30543;SDS011;43388;46.308;4.600;2022-11-24T13:23:58;12.30;;;4.03;;
30543;SDS011;43388;46.308;4.600;2022-11-24T13:26:30;9.95;;;4.38;;
30543;SDS011;43388;46.308;4.600;2022-11-24T13:28:57;12.88;;;4.40;;
30543;SDS011;43388;46.308;4.600;2022-11-24T13:31:28;13.98;;;4.85;;
30543;SDS011;43388;46.308;4.600;2022-11-24T13:33:55;13.57;;;5.65;;
30543;SDS011;43388;46.308;4.600;2022-11-24T13:38:51;10.15;;;5.88;;
30543;SDS011;43388;46.308;4.600;2022-11-24T13:49:21;15.07;;;6.25;;
30543;SDS011;43388;46.308;4.600;2022-11-24T13:51:50;13.88;;;5.72;;
30543;SDS011;43388;46.308;4.600;2022-11-24T13:54:17;13.88;;;5.78;;
30543;SDS011;43388;46.308;4.600;2022-11-24T13:56:43;13.50;;;5.57;;
30543;SDS011;43388;46.308;4.600;2022-11-24T13:59:26;15.05;;;6.20;;
30543;SDS011;43388;46.308;4.600;2022-11-24T14:01:55;11.25;;;5.55;;
30543;SDS011;43388;46.308;4.600;2022-11-24T14:04:23;16.30;;;6.53;;
30543;SDS011;43388;46.308;4.600;2022-11-24T14:14:39;13.80;;;5.97;;
30543;SDS011;43388;46.308;4.600;2022-11-24T14:17:06;15.68;;;5.95;;
30543;SDS011;43388;46.308;4.600;2022-11-24T14:19:32;26.33;;;7.47;;
30543;SDS011;43388;46.308;4.600;2022-11-24T14:21:58;14.07;;;5.93;;
30543;SDS011;43388;46.308;4.600;2022-11-24T14:24:26;15.15;;;6.93;;
30543;SDS011;43388;46.308;4.600;2022-11-24T14:26:53;13.25;;;6.30;;
30543;SDS011;43388;46.308;4.600;2022-11-24T14:29:20;10.73;;;5.47;;
30543;SDS011;43388;46.308;4.600;2022-11-24T14:31:53;14.02;;;5.53;;
30543;SDS011;43388;46.308;4.600;2022-11-24T14:34:20;17.35;;;7.25;;
30543;SDS011;43388;46.308;4.600;2022-11-24T14:36:46;16.45;;;5.55;;
30543;SDS011;43388;46.308;4.600;2022-11-24T14:39:13;16.60;;;5.38;;
30543;SDS011;43388;46.308;4.600;2022-11-24T14:41:41;15.10;;;5.25;;
30543;SDS011;43388;46.308;4.600;2022-11-24T14:46:33;15.32;;;5.43;;
30543;SDS011;43388;46.308;4.600;2022-11-24T14:49:00;20.45;;;6.28;;
30543;SDS011;43388;46.308;4.600;2022-11-24T14:51:27;18.05;;;5.60;;
30543;SDS011;43388;46.308;4.600;2022-11-24T14:53:55;17.95;;;5.30;;
30543;SDS011;43388;46.308;4.600;2022-11-24T14:56:23;12.55;;;4.97;;
30543;SDS011;43388;46.308;4.600;2022-11-24T14:58:49;11.57;;;5.63;;
30543;SDS011;43388;46.308;4.600;2022-11-24T15:01:17;14.85;;;5.38;;
30543;SDS011;43388;46.308;4.600;2022-11-24T15:03:44;14.38;;;6.43;;
30543;SDS011;43388;46.308;4.600;2022-11-24T15:06:14;13.60;;;5.50;;
30543;SDS011;43388;46.308;4.600;2022-11-24T15:08:42;20.75;;;6.22;;
30543;SDS011;43388;46.308;4.600;2022-11-24T15:11:10;16.95;;;6.65;;
30543;SDS011;43388;46.308;4.600;2022-11-24T15:13:36;16.70;;;6.60;;
30543;SDS011;43388;46.308;4.600;2022-11-24T15:16:06;16.77;;;7.43;;
30543;SDS011;43388;46.308;4.600;2022-11-24T15:18:45;14.40;;;6.80;;
30543;SDS011;43388;46.308;4.600;2022-11-24T15:21:11;19.88;;;7.40;;
30543;SDS011;43388;46.308;4.600;2022-11-24T15:23:38;13.38;;;5.78;;
30543;SDS011;43388;46.308;4.600;2022-11-24T15:28:34;23.10;;;6.95;;
30543;SDS011;43388;46.308;4.600;2022-11-24T15:31:01;14.80;;;5.85;;
30543;SDS011;43388;46.308;4.600;2022-11-24T15:33:28;12.18;;;5.20;;
30543;SDS011;43388;46.308;4.600;2022-11-24T15:35:54;19.35;;;5.40;;
30543;SDS011;43388;46.308;4.600;2022-11-24T15:38:20;15.30;;;6.18;;
30543;SDS011;43388;46.308;4.600;2022-11-24T15:40:47;14.13;;;5.57;;
30543;SDS011;43388;46.308;4.600;2022-11-24T15:45:40;13.80;;;6.45;;
30543;SDS011;43388;46.308;4.600;2022-11-24T15:48:06;12.60;;;5.20;;
30543;SDS011;43388;46.308;4.600;2022-11-24T15:50:34;16.48;;;6.65;;
30543;SDS011;43388;46.308;4.600;2022-11-24T15:53:03;16.52;;;6.70;;
30543;SDS011;43388;46.308;4.600;2022-11-24T15:55:29;20.17;;;5.95;;
30543;SDS011;43388;46.308;4.600;2022-11-24T15:57:55;14.65;;;6.40;;
30543;SDS011;43388;46.308;4.600;2022-11-24T16:00:21;10.55;;;5.38;;
30543;SDS011;43388;46.308;4.600;2022-11-24T16:02:48;16.67;;;5.25;;
30543;SDS011;43388;46.308;4.600;2022-11-24T16:05:15;14.27;;;5.40;;
30543;SDS011;43388;46.308;4.600;2022-11-24T16:07:41;12.80;;;4.80;;
30543;SDS011;43388;46.308;4.600;2022-11-24T16:10:27;14.93;;;6.07;;
30543;SDS011;43388;46.308;4.600;2022-11-24T16:12:54;10.68;;;4.70;;
30543;SDS011;43388;46.308;4.600;2022-11-24T16:15:20;11.25;;;5.53;;
30543;SDS011;43388;46.308;4.600;2022-11-24T16:17:46;13.82;;;5.28;;
30543;SDS011;43388;46.308;4.600;2022-11-24T16:20:12;12.93;;;5.70;;
30543;SDS011;43388;46.308;4.600;2022-11-24T16:22:39;13.90;;;5.80;;
30543;SDS011;43388;46.308;4.600;2022-11-24T16:25:05;20.50;;;10.80;;
30543;SDS011;43388;46.308;4.600;2022-11-24T16:27:31;19.27;;;7.40;;
30543;SDS011;43388;46.308;4.600;2022-11-24T16:29:58;15.90;;;6.03;;
30543;SDS011;43388;46.308;4.600;2022-11-24T16:32:25;18.02;;;8.73;;
30543;SDS011;43388;46.308;4.600;2022-11-24T16:34:52;18.70;;;7.10;;
30543;SDS011;43388;46.308;4.600;2022-11-24T16:37:18;16.15;;;6.40;;
30543;SDS011;43388;46.308;4.600;2022-11-24T16:39:47;11.30;;;4.50;;
30543;SDS011;43388;46.308;4.600;2022-11-24T16:42:13;12.13;;;5.25;;
30543;SDS011;43388;46.308;4.600;2022-11-24T16:44:40;11.40;;;4.82;;
30543;SDS011;43388;46.308;4.600;2022-11-24T16:47:06;17.10;;;4.50;;